Accueil
METAR-TAF:

METAR-TAF

Aéroports :

Wittering, Angleterre

latitude: 52-37N, longitude: 000-28W, altitude: 84 m

Observation

Le bulletin a été fait il y a 1 heure et 15 minutes, à 18:50 UTC
Vent 5 kt de sud
Température 21°C
Humidité 49%
Pression 1017 hPa
Visibilité 10 km ou plus

METAR: EGXT 151850Z AUTO 19005KT 9999 NCD 21/10 Q1017

Heure: 21:05 (20:05 UTC)

Prévision

Le bulletin a été fait il y a 6 heures et 23 minutes, à 13:42 UTC
Prévision valable du 15 à 15 UTC au 15 à 18 UTC
Vent 5 kt de ouest/sud-ouest
Visibilité 10 km ou plus
pas de nuages en-dessous de 1500 mètres et pas de cumulonimbus.

TAF: EGXT 151342Z 1515/1518 24005KT CAVOK

Observations et prévisions météorologiques de plus de 4000 aéroports (messages METAR et TAF).

Les stations disponibles sont représentées par des disques jaunes et rouges sur la carte.

Passer la souris dessus pour voir le nom de la station.

Cliquer dessus pour voir les observations et prévisions météorologiques.

Pour changer de carte: cliquez sur les boutons verts avec une croix noire pour zoomer, sur le bouton vert avec un tiret pour effectuer un zoom arrière, ou sur les flèches vertes pour les cartes adjacentes.


METAR-TAF: